createdAt,value
2018-02-11T00:00:16.428Z,92.50
2018-02-11T00:02:44.740Z,92.50
2018-02-11T00:05:12.168Z,92.50
2018-02-11T00:07:40.391Z,92.50
2018-02-11T00:10:07.852Z,92.50
2018-02-11T00:12:36.576Z,92.40
2018-02-11T00:15:04.808Z,92.30
2018-02-11T00:17:32.249Z,92.30
2018-02-11T00:19:59.832Z,92.30
2018-02-11T00:22:27.267Z,92.30
2018-02-11T00:24:54.732Z,92.30
2018-02-11T00:27:22.173Z,92.20
2018-02-11T00:29:49.627Z,92.20
2018-02-11T00:32:17.064Z,92.20
2018-02-11T00:34:45.287Z,92.10
2018-02-11T00:37:13.365Z,92.10
2018-02-11T00:39:40.981Z,92.10
2018-02-11T00:42:09.184Z,92.00
2018-02-11T00:44:36.613Z,92.00
2018-02-11T00:47:04.111Z,92.00
2018-02-11T00:49:31.553Z,91.90
2018-02-11T00:51:59.020Z,91.90
2018-02-11T00:54:26.633Z,91.80
2018-02-11T00:56:54.055Z,91.80
2018-02-11T00:59:21.490Z,91.80
2018-02-11T01:01:48.944Z,91.80
2018-02-11T01:04:16.412Z,91.80
2018-02-11T01:06:43.848Z,91.70
2018-02-11T01:09:11.314Z,91.70
2018-02-11T01:11:38.739Z,91.70
2018-02-11T01:14:07.983Z,91.80
2018-02-11T01:16:35.424Z,91.70
2018-02-11T01:19:02.857Z,91.80
2018-02-11T01:21:31.079Z,91.90
2018-02-11T01:23:58.559Z,91.90
2018-02-11T01:26:25.991Z,92.00
2018-02-11T01:28:53.425Z,92.00
2018-02-11T01:31:24.767Z,92.10
2018-02-11T01:33:52.195Z,92.10
2018-02-11T01:36:20.412Z,92.20
2018-02-11T01:38:47.859Z,92.20
2018-02-11T01:41:15.295Z,92.20
2018-02-11T01:43:43.901Z,92.40
2018-02-11T01:46:11.348Z,92.40
2018-02-11T01:48:39.545Z,92.40
2018-02-11T01:51:07.328Z,92.40
2018-02-11T01:53:34.788Z,92.50
2018-02-11T01:56:02.380Z,92.50
2018-02-11T01:58:29.830Z,92.60
2018-02-11T02:00:57.263Z,92.60
2018-02-11T02:03:24.733Z,92.60
2018-02-11T02:05:52.180Z,92.70
2018-02-11T02:08:19.611Z,92.70
2018-02-11T02:10:47.069Z,92.70
2018-02-11T02:13:14.612Z,92.70
2018-02-11T02:15:47.321Z,92.80
2018-02-11T02:18:14.793Z,92.80
2018-02-11T02:20:42.256Z,92.90
2018-02-11T02:23:09.716Z,93.10
2018-02-11T02:25:37.151Z,93.00
2018-02-11T02:28:04.583Z,93.00
2018-02-11T02:30:33.803Z,93.00
2018-02-11T02:33:01.284Z,93.00
2018-02-11T02:35:28.822Z,93.10
2018-02-11T02:37:57.054Z,93.10
2018-02-11T02:40:25.268Z,93.20
2018-02-11T02:42:52.706Z,93.20
2018-02-11T02:45:20.207Z,93.30
2018-02-11T02:47:47.640Z,93.30
2018-02-11T02:50:15.725Z,93.40
2018-02-11T02:52:43.155Z,93.40
2018-02-11T02:55:10.588Z,93.40
2018-02-11T02:57:38.860Z,93.40
2018-02-11T03:00:07.096Z,93.50
2018-02-11T03:02:34.532Z,93.50
2018-02-11T03:05:03.230Z,93.50
2018-02-11T03:07:30.664Z,93.50
2018-02-11T03:09:58.320Z,93.60
2018-02-11T03:12:25.751Z,93.60
2018-02-11T03:14:53.968Z,93.70
2018-02-11T03:17:21.396Z,93.70
2018-02-11T03:19:49.619Z,93.70
2018-02-11T03:22:17.056Z,93.70
2018-02-11T03:24:49.343Z,93.70
2018-02-11T03:27:16.776Z,93.80
2018-02-11T03:29:44.203Z,93.80
2018-02-11T03:32:12.472Z,93.90
2018-02-11T03:34:39.904Z,93.80
2018-02-11T03:37:07.452Z,93.90
2018-02-11T03:39:34.891Z,93.90
2018-02-11T03:42:02.375Z,93.90
2018-02-11T03:44:29.812Z,93.90
2018-02-11T03:46:57.999Z,94.00
2018-02-11T03:49:30.476Z,94.00
2018-02-11T03:51:57.911Z,94.00
2018-02-11T03:54:25.388Z,94.00
2018-02-11T03:56:52.841Z,94.00
2018-02-11T03:59:20.293Z,94.10
2018-02-11T04:01:52.575Z,94.10
2018-02-11T04:04:20.014Z,94.10
2018-02-11T04:06:47.532Z,94.40
2018-02-11T04:09:15.732Z,94.20
2018-02-11T04:11:43.355Z,94.20
2018-02-11T04:14:10.776Z,94.20
2018-02-11T04:16:38.199Z,94.20
2018-02-11T04:19:05.659Z,94.20
2018-02-11T04:21:33.084Z,94.30
2018-02-11T04:24:00.543Z,94.30
2018-02-11T04:26:27.975Z,94.60
2018-02-11T04:28:55.513Z,94.30
2018-02-11T04:31:22.943Z,94.30
2018-02-11T04:33:50.376Z,94.40
2018-02-11T04:36:17.931Z,94.40
2018-02-11T04:38:45.367Z,94.40
2018-02-11T04:41:12.836Z,94.40
2018-02-11T04:43:40.271Z,94.40
2018-02-11T04:46:07.898Z,94.40
2018-02-11T04:48:35.320Z,94.50
2018-02-11T04:51:02.751Z,94.50
2018-02-11T04:53:31.524Z,94.50
2018-02-11T04:55:58.951Z,94.50
2018-02-11T04:58:26.377Z,94.60
2018-02-11T05:00:53.855Z,94.60
2018-02-11T05:03:22.052Z,94.60
2018-02-11T05:05:49.480Z,94.60
2018-02-11T05:08:17.735Z,94.60
2018-02-11T05:10:45.164Z,94.60
2018-02-11T05:13:12.607Z,94.60
2018-02-11T05:15:40.043Z,94.70
2018-02-11T05:18:07.494Z,94.70
2018-02-11T05:20:35.687Z,94.80
2018-02-11T05:23:03.144Z,94.80
2018-02-11T05:25:30.579Z,94.80
2018-02-11T05:27:58.888Z,94.80
2018-02-11T05:30:26.312Z,94.80
2018-02-11T05:32:54.501Z,94.80
2018-02-11T05:35:22.001Z,94.80
2018-02-11T05:37:49.627Z,94.80
2018-02-11T05:40:17.057Z,94.80
2018-02-11T05:42:45.280Z,94.80
2018-02-11T05:45:12.761Z,94.80
2018-02-11T05:47:40.195Z,94.90
2018-02-11T05:50:07.615Z,94.90
2018-02-11T05:52:35.927Z,94.90
2018-02-11T05:55:03.359Z,94.90
2018-02-11T05:57:30.785Z,95.00
2018-02-11T05:59:58.292Z,95.00
2018-02-11T06:02:25.716Z,95.30
2018-02-11T06:04:53.940Z,95.00
2018-02-11T06:07:21.439Z,95.00
2018-02-11T06:09:49.633Z,95.20
2018-02-11T06:12:17.823Z,95.00
2018-02-11T06:14:45.281Z,95.00
2018-02-11T06:17:12.736Z,95.10
2018-02-11T06:19:40.156Z,95.10
2018-02-11T06:22:07.808Z,95.10
2018-02-11T06:24:35.263Z,95.00
2018-02-11T06:27:02.715Z,95.10
2018-02-11T06:29:30.139Z,95.10
2018-02-11T06:31:57.596Z,95.20
2018-02-11T06:34:25.051Z,95.20
2018-02-11T06:36:52.472Z,95.20
2018-02-11T06:39:21.004Z,95.20
2018-02-11T06:41:48.433Z,95.20
2018-02-11T06:44:15.876Z,95.20
2018-02-11T06:46:44.068Z,95.30
2018-02-11T06:49:11.519Z,95.30
2018-02-11T06:51:38.947Z,95.30
2018-02-11T06:54:06.435Z,95.30
2018-02-11T06:56:33.861Z,95.30
2018-02-11T06:59:01.419Z,95.30
2018-02-11T07:01:29.003Z,95.30
2018-02-11T07:03:57.201Z,95.30
2018-02-11T07:06:24.665Z,95.30
2018-02-11T07:08:52.100Z,95.30
2018-02-11T07:11:19.559Z,95.30
2018-02-11T07:13:47.016Z,95.30
2018-02-11T07:16:14.564Z,95.30
2018-02-11T07:18:43.213Z,95.30
2018-02-11T07:21:10.636Z,95.30
2018-02-11T07:23:38.060Z,95.30
2018-02-11T07:26:06.279Z,95.40
2018-02-11T07:28:33.788Z,95.40
2018-02-11T07:31:01.183Z,95.40
2018-02-11T07:33:29.376Z,95.40
2018-02-11T07:36:02.049Z,95.40
2018-02-11T07:38:29.471Z,95.50
2018-02-11T07:40:56.920Z,95.40
2018-02-11T07:43:25.298Z,95.50
2018-02-11T07:45:53.521Z,95.50
2018-02-11T07:48:20.948Z,95.50
2018-02-11T07:50:48.472Z,95.50
2018-02-11T07:53:15.859Z,95.50
2018-02-11T07:55:43.333Z,95.50
2018-02-11T07:58:10.759Z,95.50
2018-02-11T08:00:38.947Z,95.50
2018-02-11T08:03:06.471Z,95.50
2018-02-11T08:05:33.916Z,95.60
2018-02-11T08:08:01.347Z,95.60
2018-02-11T08:10:29.699Z,95.60
2018-02-11T08:12:58.201Z,95.60
2018-02-11T08:15:25.859Z,95.50
2018-02-11T08:17:53.368Z,95.50
2018-02-11T08:20:20.903Z,95.50
2018-02-11T08:22:48.731Z,95.50
2018-02-11T08:25:16.208Z,95.50
2018-02-11T08:27:43.807Z,95.50
2018-02-11T08:30:11.387Z,95.50
2018-02-11T08:32:38.989Z,95.50
2018-02-11T08:35:06.619Z,95.50
2018-02-11T08:37:34.796Z,95.50
2018-02-11T08:40:02.449Z,95.40
2018-02-11T08:42:30.724Z,95.40
2018-02-11T08:45:02.002Z,95.40
2018-02-11T08:47:29.448Z,95.40
2018-02-11T08:49:56.879Z,95.40
2018-02-11T08:52:25.483Z,95.40
2018-02-11T08:54:53.984Z,95.40
2018-02-11T08:57:21.576Z,95.40
2018-02-11T08:59:49.163Z,95.40
2018-02-11T09:02:16.697Z,95.30
2018-02-11T09:04:44.318Z,95.30
2018-02-11T09:07:11.988Z,95.30
2018-02-11T09:09:39.713Z,95.20
2018-02-11T09:12:07.867Z,95.20
2018-02-11T09:14:35.366Z,95.20
2018-02-11T09:17:03.976Z,95.20
2018-02-11T09:19:32.380Z,95.20
2018-02-11T09:22:00.702Z,95.20
2018-02-11T09:24:29.104Z,95.30
2018-02-11T09:26:56.644Z,95.20
2018-02-11T09:29:24.344Z,95.20
2018-02-11T09:31:52.043Z,95.20
2018-02-11T09:34:19.667Z,95.20
2018-02-11T09:36:47.209Z,95.20
2018-02-11T09:39:15.556Z,95.20
2018-02-11T09:41:43.761Z,95.20
2018-02-11T09:44:12.287Z,95.20
2018-02-11T09:46:40.580Z,95.20
2018-02-11T09:49:08.240Z,95.20
2018-02-11T09:51:35.860Z,95.20
2018-02-11T09:54:03.660Z,95.20
2018-02-11T09:56:31.353Z,95.20
2018-02-11T09:59:02.186Z,95.20
2018-02-11T10:01:29.927Z,95.20
2018-02-11T10:03:57.673Z,95.20
2018-02-11T10:06:25.350Z,95.10
2018-02-11T10:08:52.897Z,95.10
2018-02-11T10:11:21.983Z,95.10
2018-02-11T10:13:49.756Z,95.10
2018-02-11T10:16:17.561Z,95.20
2018-02-11T10:18:45.896Z,95.20
2018-02-11T10:21:13.497Z,95.20
2018-02-11T10:23:42.629Z,95.40
2018-02-11T10:26:10.426Z,95.20
2018-02-11T10:28:38.194Z,95.20
2018-02-11T10:31:05.721Z,95.20
2018-02-11T10:33:34.043Z,95.30
2018-02-11T10:36:01.516Z,95.30
2018-02-11T10:38:34.977Z,95.20
2018-02-11T10:41:02.532Z,95.20
2018-02-11T10:43:30.252Z,95.10
2018-02-11T10:45:58.776Z,95.10
2018-02-11T10:48:26.476Z,95.10
2018-02-11T10:50:54.866Z,95.20
2018-02-11T10:53:22.576Z,95.20
2018-02-11T10:55:50.469Z,95.20
2018-02-11T10:58:18.544Z,95.20
2018-02-11T11:00:46.189Z,95.20
2018-02-11T11:03:13.826Z,95.20
2018-02-11T11:05:42.183Z,95.50
2018-02-11T11:08:10.361Z,95.30
2018-02-11T11:10:38.059Z,95.30
2018-02-11T11:13:05.610Z,95.40
2018-02-11T11:15:33.625Z,95.30
2018-02-11T11:18:01.307Z,95.30
2018-02-11T11:20:29.766Z,95.30
2018-02-11T11:22:57.249Z,95.30
2018-02-11T11:25:25.855Z,95.40
2018-02-11T11:27:53.568Z,95.40
2018-02-11T11:30:21.100Z,95.40
2018-02-11T11:32:49.658Z,95.50
2018-02-11T11:35:22.490Z,95.60
2018-02-11T11:37:50.127Z,95.60
2018-02-11T11:40:17.561Z,95.50
2018-02-11T11:42:45.096Z,95.40
2018-02-11T11:45:13.304Z,95.40
2018-02-11T11:47:40.884Z,95.40
2018-02-11T11:50:10.130Z,95.40
2018-02-11T11:52:38.502Z,95.40
2018-02-11T11:55:06.867Z,95.40
2018-02-11T11:57:34.600Z,95.40
2018-02-11T12:00:02.418Z,95.40
2018-02-11T12:02:31.060Z,95.40
2018-02-11T12:04:59.516Z,95.40
2018-02-11T12:07:30.043Z,95.40
2018-02-11T12:09:57.728Z,95.40
2018-02-11T12:12:29.425Z,95.20
2018-02-11T12:14:57.066Z,95.20
2018-02-11T12:17:25.575Z,95.00
2018-02-11T12:19:53.788Z,95.00
2018-02-11T12:22:21.263Z,95.00
2018-02-11T12:24:48.705Z,94.90
2018-02-11T12:27:16.142Z,94.70
2018-02-11T12:29:43.603Z,94.50
2018-02-11T12:32:11.036Z,94.30
2018-02-11T12:34:39.396Z,94.00
2018-02-11T12:37:07.652Z,94.30
2018-02-11T12:39:35.113Z,94.00
2018-02-11T12:42:02.576Z,93.90
2018-02-11T12:44:30.632Z,93.90
2018-02-11T12:46:58.316Z,93.90
2018-02-11T12:49:25.763Z,93.80
2018-02-11T12:51:53.207Z,93.80
2018-02-11T12:54:21.228Z,93.80
2018-02-11T12:56:48.611Z,93.80
2018-02-11T12:59:16.166Z,93.70
2018-02-11T13:01:44.688Z,93.50
2018-02-11T13:04:12.293Z,93.50
2018-02-11T13:06:41.952Z,93.50
2018-02-11T13:09:09.612Z,93.50
2018-02-11T13:11:37.154Z,93.40
2018-02-11T13:14:07.850Z,93.40
2018-02-11T13:16:35.483Z,93.20
2018-02-11T13:19:04.386Z,93.10
2018-02-11T13:21:32.232Z,92.80
2018-02-11T13:23:59.978Z,92.70
2018-02-11T13:26:29.269Z,92.70
2018-02-11T13:28:56.873Z,92.40
2018-02-11T13:31:25.401Z,92.50
2018-02-11T13:33:53.143Z,92.50
2018-02-11T13:36:20.780Z,92.30
2018-02-11T13:38:48.285Z,92.30
2018-02-11T13:41:16.833Z,92.30
2018-02-11T13:43:45.392Z,92.30
2018-02-11T13:46:13.861Z,92.50
2018-02-11T13:48:42.034Z,92.50
2018-02-11T13:51:09.550Z,92.60
2018-02-11T13:53:37.936Z,92.60
2018-02-11T13:56:05.730Z,92.60
2018-02-11T13:58:33.311Z,92.50
2018-02-11T14:01:00.947Z,92.50
2018-02-11T14:03:29.978Z,92.30
2018-02-11T14:05:57.507Z,92.20
2018-02-11T14:08:25.092Z,92.30
2018-02-11T14:10:52.729Z,92.20
2018-02-11T14:13:20.371Z,92.10
2018-02-11T14:15:48.058Z,92.00
2018-02-11T14:18:16.588Z,92.00
2018-02-11T14:20:44.307Z,92.00
2018-02-11T14:23:12.050Z,91.90
2018-02-11T14:25:40.534Z,91.90
2018-02-11T14:28:08.170Z,92.20
2018-02-11T14:30:36.531Z,91.80
2018-02-11T14:33:04.335Z,91.80
2018-02-11T14:35:32.779Z,91.50
2018-02-11T14:38:01.091Z,90.90
2018-02-11T14:40:28.728Z,90.90
2018-02-11T14:42:56.335Z,91.00
2018-02-11T14:45:24.252Z,91.00
2018-02-11T14:47:52.568Z,91.20
2018-02-11T14:50:20.219Z,91.20
2018-02-11T14:52:47.996Z,91.30
2018-02-11T14:55:15.535Z,91.30
2018-02-11T14:57:43.380Z,91.40
2018-02-11T15:00:11.947Z,91.50
2018-02-11T15:02:40.333Z,91.60
2018-02-11T15:05:09.005Z,91.60
2018-02-11T15:07:36.555Z,91.60
2018-02-11T15:10:04.111Z,91.70
2018-02-11T15:12:31.727Z,91.70
2018-02-11T15:14:59.159Z,91.80
2018-02-11T15:17:27.361Z,91.90
2018-02-11T15:19:54.819Z,91.90
2018-02-11T15:22:22.246Z,91.90
2018-02-11T15:24:50.451Z,92.30
2018-02-11T15:27:18.074Z,92.00
2018-02-11T15:29:45.509Z,92.10
2018-02-11T15:32:13.085Z,92.20
2018-02-11T15:34:40.516Z,92.20
2018-02-11T15:37:07.961Z,92.20
2018-02-11T15:39:35.527Z,92.30
2018-02-11T15:42:02.953Z,92.20
2018-02-11T15:44:30.533Z,92.30
2018-02-11T15:46:57.959Z,92.20
2018-02-11T15:49:26.162Z,92.40
2018-02-11T15:51:53.621Z,92.40
2018-02-11T15:54:21.057Z,92.40
2018-02-11T15:56:48.488Z,92.40
2018-02-11T15:59:16.076Z,92.40
2018-02-11T16:01:43.585Z,92.50
2018-02-11T16:04:11.031Z,92.50
2018-02-11T16:06:39.372Z,92.60
2018-02-11T16:09:06.812Z,92.60
2018-02-11T16:11:35.020Z,92.60
2018-02-11T16:14:02.640Z,92.60
2018-02-11T16:16:30.073Z,92.60
2018-02-11T16:18:57.512Z,92.60
2018-02-11T16:21:25.073Z,92.60
2018-02-11T16:23:52.536Z,92.60
2018-02-11T16:26:19.982Z,92.60
2018-02-11T16:28:47.584Z,92.70
2018-02-11T16:31:15.090Z,92.70
2018-02-11T16:33:42.520Z,92.80
2018-02-11T16:36:10.732Z,92.80
2018-02-11T16:38:38.562Z,92.80
2018-02-11T16:41:05.944Z,92.80
2018-02-11T16:43:33.384Z,92.90
2018-02-11T16:46:00.933Z,92.90
2018-02-11T16:48:29.140Z,92.90
2018-02-11T16:50:56.575Z,92.90
2018-02-11T16:53:24.154Z,92.90
2018-02-11T16:55:51.583Z,92.80
2018-02-11T16:58:19.840Z,92.90
2018-02-11T17:00:47.289Z,92.80
2018-02-11T17:03:14.720Z,93.20
2018-02-11T17:05:42.212Z,92.80
2018-02-11T17:08:09.658Z,92.80
2018-02-11T17:10:37.124Z,92.80
2018-02-11T17:13:05.908Z,92.90
2018-02-11T17:15:33.584Z,93.00
2018-02-11T17:18:01.884Z,93.00
2018-02-11T17:20:29.324Z,92.90
2018-02-11T17:22:57.543Z,92.90
2018-02-11T17:25:25.034Z,92.90
2018-02-11T17:27:52.440Z,92.90
2018-02-11T17:30:19.881Z,92.90
2018-02-11T17:32:48.355Z,93.10
2018-02-11T17:35:16.565Z,93.10
2018-02-11T17:37:44.052Z,93.10
2018-02-11T17:40:11.544Z,93.40
2018-02-11T17:42:39.771Z,93.20
2018-02-11T17:45:07.205Z,93.20
2018-02-11T17:47:34.671Z,93.30
2018-02-11T17:50:02.100Z,93.30
2018-02-11T17:52:30.316Z,93.30
2018-02-11T17:54:57.907Z,93.20
2018-02-11T17:57:25.367Z,93.30
2018-02-11T17:59:52.804Z,93.40
2018-02-11T18:02:20.260Z,93.60
2018-02-11T18:04:47.733Z,93.40
2018-02-11T18:07:15.251Z,93.40
2018-02-11T18:09:42.684Z,93.40
2018-02-11T18:12:10.885Z,93.40
2018-02-11T18:14:43.385Z,93.40
2018-02-11T18:17:11.119Z,93.70
2018-02-11T18:19:38.551Z,93.40
2018-02-11T18:22:06.780Z,93.40
2018-02-11T18:24:34.216Z,93.40
2018-02-11T18:27:01.687Z,93.50
2018-02-11T18:29:29.127Z,93.50
2018-02-11T18:31:56.564Z,93.50
2018-02-11T18:34:24.200Z,93.50
2018-02-11T18:36:51.708Z,93.60
2018-02-11T18:39:19.164Z,93.60
2018-02-11T18:41:46.625Z,93.60
2018-02-11T18:44:14.084Z,93.60
2018-02-11T18:46:42.303Z,93.60
2018-02-11T18:49:09.740Z,93.60
2018-02-11T18:51:37.208Z,94.00
2018-02-11T18:54:04.670Z,93.60
2018-02-11T18:56:32.269Z,93.60
2018-02-11T18:59:00.727Z,93.60
2018-02-11T19:01:28.177Z,93.60
2018-02-11T19:03:55.616Z,93.60
2018-02-11T19:06:23.459Z,93.60
2018-02-11T19:08:50.916Z,93.60
2018-02-11T19:11:18.352Z,93.60
2018-02-11T19:13:45.945Z,93.60
2018-02-11T19:16:13.448Z,93.60
2018-02-11T19:18:41.671Z,93.70
2018-02-11T19:21:09.111Z,93.70
2018-02-11T19:23:36.592Z,93.70
2018-02-11T19:26:04.031Z,93.80
2018-02-11T19:28:31.475Z,93.80
2018-02-11T19:30:59.192Z,93.80
2018-02-11T19:33:26.881Z,93.80
2018-02-11T19:35:55.216Z,93.80
2018-02-11T19:38:23.025Z,93.80
2018-02-11T19:40:51.457Z,93.80
2018-02-11T19:43:19.030Z,93.70
2018-02-11T19:45:46.574Z,93.70
2018-02-11T19:48:14.450Z,93.70
2018-02-11T19:50:42.159Z,93.70
2018-02-11T19:53:10.425Z,93.70
2018-02-11T19:55:38.009Z,93.70
2018-02-11T19:58:05.546Z,93.70
2018-02-11T20:00:33.069Z,93.70
2018-02-11T20:03:01.032Z,93.70
2018-02-11T20:05:28.690Z,93.80
2018-02-11T20:07:56.286Z,93.70
2018-02-11T20:10:25.013Z,93.80
2018-02-11T20:12:52.715Z,93.70
2018-02-11T20:15:21.140Z,93.80
2018-02-11T20:17:48.774Z,93.80
2018-02-11T20:20:16.445Z,94.00
2018-02-11T20:22:44.069Z,93.80
2018-02-11T20:25:12.653Z,93.90
2018-02-11T20:27:40.161Z,93.80
2018-02-11T20:30:07.811Z,93.70
2018-02-11T20:32:35.440Z,93.70
2018-02-11T20:35:03.000Z,93.70
2018-02-11T20:37:30.654Z,93.80
2018-02-11T20:39:58.353Z,93.80
2018-02-11T20:42:26.155Z,93.70
2018-02-11T20:44:53.703Z,93.70
2018-02-11T20:47:21.139Z,93.70
2018-02-11T20:49:49.883Z,93.80
2018-02-11T20:52:17.316Z,93.80
2018-02-11T20:54:44.787Z,93.80
2018-02-11T20:57:12.243Z,93.80
2018-02-11T20:59:40.695Z,93.80
2018-02-11T21:02:12.841Z,93.80
2018-02-11T21:04:40.288Z,93.80
2018-02-11T21:07:07.711Z,93.90
2018-02-11T21:09:37.223Z,93.90
2018-02-11T21:12:04.676Z,93.90
2018-02-11T21:14:34.142Z,93.90
2018-02-11T21:17:02.336Z,93.80
2018-02-11T21:19:29.840Z,93.80
2018-02-11T21:22:00.289Z,93.80
2018-02-11T21:24:27.811Z,93.90
2018-02-11T21:26:55.239Z,93.90
2018-02-11T21:29:22.695Z,93.90
2018-02-11T21:31:51.144Z,93.90
2018-02-11T21:34:19.660Z,94.00
2018-02-11T21:36:47.115Z,94.00
2018-02-11T21:39:14.623Z,94.00
2018-02-11T21:41:42.052Z,94.10
2018-02-11T21:44:09.515Z,94.00
2018-02-11T21:46:36.969Z,94.10
2018-02-11T21:49:05.516Z,94.10
2018-02-11T21:51:33.740Z,94.10
2018-02-11T21:54:01.224Z,94.10
2018-02-11T21:56:28.851Z,94.10
2018-02-11T21:58:56.283Z,94.10
2018-02-11T22:01:27.370Z,94.10
2018-02-11T22:04:02.596Z,94.10
2018-02-11T22:06:34.979Z,94.10
2018-02-11T22:09:02.433Z,94.10
2018-02-11T22:11:30.100Z,94.10
2018-02-11T22:13:57.531Z,94.10
2018-02-11T22:16:24.987Z,94.10
2018-02-11T22:18:52.459Z,94.10
2018-02-11T22:21:19.896Z,94.10
2018-02-11T22:23:47.325Z,94.10
2018-02-11T22:26:15.629Z,94.10
2018-02-11T22:28:43.090Z,94.10
2018-02-11T22:31:10.523Z,94.20
2018-02-11T22:33:38.127Z,94.20
2018-02-11T22:36:05.557Z,94.20
2018-02-11T22:38:33.167Z,94.20
2018-02-11T22:41:00.604Z,94.20
2018-02-11T22:43:28.108Z,94.20
2018-02-11T22:45:56.474Z,94.20
2018-02-11T22:48:24.671Z,94.30
2018-02-11T22:50:52.127Z,94.20
2018-02-11T22:53:19.551Z,94.20
2018-02-11T22:55:52.203Z,94.20
2018-02-11T22:58:19.638Z,94.30
2018-02-11T23:00:47.063Z,94.30
2018-02-11T23:03:15.332Z,94.20
2018-02-11T23:05:42.764Z,94.20
2018-02-11T23:08:10.216Z,94.30
2018-02-11T23:10:37.648Z,94.30
2018-02-11T23:13:10.144Z,94.30
2018-02-11T23:15:37.581Z,94.30
2018-02-11T23:18:05.052Z,94.30
2018-02-11T23:20:32.490Z,94.40
2018-02-11T23:22:59.917Z,94.40
2018-02-11T23:25:28.135Z,94.40
2018-02-11T23:27:55.736Z,94.40
2018-02-11T23:30:23.159Z,94.40
2018-02-11T23:32:50.647Z,94.40
2018-02-11T23:35:18.104Z,94.40
2018-02-11T23:37:45.531Z,94.40
2018-02-11T23:40:12.987Z,94.40
2018-02-11T23:42:41.387Z,94.40
2018-02-11T23:45:09.040Z,94.40
2018-02-11T23:47:36.458Z,94.40
2018-02-11T23:50:03.959Z,94.40
2018-02-11T23:52:31.391Z,94.40
2018-02-11T23:54:58.851Z,94.40
2018-02-11T23:57:26.277Z,94.40
2018-02-11T23:59:54.491Z,94.40
